Chelsea, Maine
Current Conditions -  °F | °C
As of 2:53 PM on Saturday 25 Oct 2014 (Local Time) from KAUG Reporting Station
Clear Clear  
Wind Chill: 63°   Ceiling: Unl
Heat Index: 63°   Visibility: 10mi
Dew Point: 35°   Wind: 5mph
Humidity: 35%   Direction: NA
Pressure: 29.56"   Gusts: NA
Location:  44.3261°N, 69.698°W
Report Text: KAUG 251853Z AUTO VRB04KT 10SM CLR 17/02 A2956 RMK AO2 SLP011 T01720017
Loading
Personal Weather Stations






























Interactive Weather Map
Tropical Storm Tracking
New forecast layout! Learn more

10-Day Weather Forecast

Advertisements
Track Severe Weather on mobile